1C9 weather

Frazier Lake Airpark
Hollister, California, United States

Public forecast

Using degrees Fahrenheit for public forecast. Weather courtesy of forecast.io.

Closest aviation weather report (METAR) to Frazier Lake Airpark

Closest report is San Martin Airport, 10.0 nm (18.5 km) NW. Retrieved UTC (0 seconds ago):

Closest aviation forecast (TAF) to Frazier Lake Airpark

Closest forecast is Salinas Municipal Airport, 18.7 nm (34.7 km) SSW. Retrieved 2019/10/16 18:30 UTC (50 minutes ago):

TAF KSNS 161728Z 1618/1718 31008KT P6SM BKN200 FM162100 29011KT P6SM BKN200 FM170300 32005KT P6SM BKN010 FM170700 12004KT 6SM BR BKN006 FM171000 VRB04KT 5SM BR VCSH OVC006 FM171500 31008KT 6SM BR OVC007